createdAt,value
2018-06-02T00:00:20.818Z,1013.63
2018-06-02T00:01:30.493Z,1013.62
2018-06-02T00:02:40.180Z,1013.63
2018-06-02T00:03:49.860Z,1013.63
2018-06-02T00:04:58.802Z,1013.66
2018-06-02T00:06:08.261Z,1013.69
2018-06-02T00:07:17.947Z,1013.69
2018-06-02T00:08:27.120Z,1013.72
2018-06-02T00:09:36.280Z,1013.74
2018-06-02T00:10:45.709Z,1013.78
2018-06-02T00:11:55.146Z,1013.77
2018-06-02T00:13:04.550Z,1013.76
2018-06-02T00:14:13.727Z,1013.78
2018-06-02T00:15:23.174Z,1013.76
2018-06-02T00:16:32.372Z,1013.76
2018-06-02T00:17:42.045Z,1013.77
2018-06-02T00:18:51.461Z,1013.8
2018-06-02T00:20:00.624Z,1013.76
2018-06-02T00:21:10.315Z,1013.79
2018-06-02T00:22:19.739Z,1013.81
2018-06-02T00:23:29.416Z,1013.83
2018-06-02T00:24:38.863Z,1013.86
2018-06-02T00:25:48.535Z,1013.86
2018-06-02T00:26:57.941Z,1013.82
2018-06-02T00:28:06.842Z,1013.86
2018-06-02T00:29:15.994Z,1013.81
2018-06-02T00:30:25.463Z,1013.83
2018-06-02T00:31:34.880Z,1013.8
2018-06-02T00:32:44.285Z,1013.83
2018-06-02T00:33:53.458Z,1013.85
2018-06-02T00:35:02.872Z,1013.81
2018-06-02T00:36:12.038Z,1013.8
2018-06-02T00:37:21.202Z,1013.84
2018-06-02T00:38:30.365Z,1013.84
2018-06-02T00:39:39.784Z,1013.8
2018-06-02T00:40:49.441Z,1013.76
2018-06-02T00:41:59.117Z,1013.8
2018-06-02T00:43:08.555Z,1013.81
2018-06-02T00:44:17.735Z,1013.81
2018-06-02T00:45:26.897Z,1013.78
2018-06-02T00:46:36.356Z,1013.77
2018-06-02T00:47:46.297Z,1013.76
2018-06-02T00:48:55.461Z,1013.75
2018-06-02T00:50:04.632Z,1013.74
2018-06-02T00:51:13.780Z,1013.73
2018-06-02T00:52:23.449Z,1013.71
2018-06-02T00:53:33.370Z,1013.77
2018-06-02T00:54:42.798Z,1013.77
2018-06-02T00:55:51.698Z,1013.75
2018-06-02T00:57:01.118Z,1013.72
2018-06-02T00:58:10.541Z,1013.71
2018-06-02T00:59:19.952Z,1013.7
2018-06-02T01:00:28.843Z,1013.64
2018-06-02T01:01:38.832Z,1013.6
2018-06-02T01:02:48.250Z,1013.65
2018-06-02T01:03:57.411Z,1013.64
2018-06-02T01:05:06.616Z,1013.68
2018-06-02T01:06:16.060Z,1013.68
2018-06-02T01:07:25.779Z,1013.67
2018-06-02T01:08:35.199Z,1013.66
2018-06-02T01:09:44.392Z,1013.66
2018-06-02T01:10:53.822Z,1013.64
2018-06-02T01:12:03.267Z,1013.66
2018-06-02T01:13:13.004Z,1013.67
2018-06-02T01:14:22.435Z,1013.63
2018-06-02T01:15:31.866Z,1013.64
2018-06-02T01:16:40.819Z,1013.71
2018-06-02T01:17:50.002Z,1013.63
2018-06-02T01:18:58.963Z,1013.63
2018-06-02T01:20:08.654Z,1013.64
2018-06-02T01:21:17.816Z,1013.63
2018-06-02T01:22:27.489Z,1013.59
2018-06-02T01:23:37.429Z,1013.63
2018-06-02T01:24:46.841Z,1013.63
2018-06-02T01:25:55.742Z,1013.58
2018-06-02T01:27:04.911Z,1013.59
2018-06-02T01:28:14.337Z,1013.57
2018-06-02T01:29:23.765Z,1013.59
2018-06-02T01:30:32.920Z,1013.53
2018-06-02T01:31:41.814Z,1013.56
2018-06-02T01:32:51.229Z,1013.6
2018-06-02T01:34:00.402Z,1013.55
2018-06-02T01:35:09.837Z,1013.56
2018-06-02T01:36:19.007Z,1013.59
2018-06-02T01:37:28.428Z,1013.56
2018-06-02T01:38:37.601Z,1013.56
2018-06-02T01:39:47.262Z,1013.58
2018-06-02T01:40:56.937Z,1013.52
2018-06-02T01:42:06.096Z,1013.56
2018-06-02T01:43:14.983Z,1013.53
2018-06-02T01:44:24.144Z,1013.55
2018-06-02T01:45:33.829Z,1013.55
2018-06-02T01:46:43.303Z,1013.55
2018-06-02T01:47:52.465Z,1013.53
2018-06-02T01:49:01.890Z,1013.55
2018-06-02T01:50:10.529Z,1013.54
2018-06-02T01:51:20.195Z,1013.51
2018-06-02T01:52:30.116Z,1013.5
2018-06-02T01:53:40.070Z,1013.54
2018-06-02T01:54:49.489Z,1013.56
2018-06-02T01:55:58.887Z,1013.57
2018-06-02T01:57:08.293Z,1013.59
2018-06-02T01:58:17.436Z,1013.58
2018-06-02T01:59:26.845Z,1013.6
2018-06-02T02:00:36.811Z,1013.58
2018-06-02T02:01:46.508Z,1013.62
2018-06-02T02:02:55.682Z,1013.57
2018-06-02T02:04:05.371Z,1013.55
2018-06-02T02:05:15.049Z,1013.59
2018-06-02T02:06:24.227Z,1013.56
2018-06-02T02:07:33.375Z,1013.57
2018-06-02T02:08:42.538Z,1013.51
2018-06-02T02:09:51.977Z,1013.58
2018-06-02T02:11:00.892Z,1013.54
2018-06-02T02:12:10.569Z,1013.57
2018-06-02T02:13:20.258Z,1013.56
2018-06-02T02:14:29.688Z,1013.58
2018-06-02T02:15:39.387Z,1013.6
2018-06-02T02:16:49.058Z,1013.58
2018-06-02T02:17:58.748Z,1013.59
2018-06-02T02:19:07.675Z,1013.58
2018-06-02T02:20:16.824Z,1013.57
2018-06-02T02:21:26.235Z,1013.54
2018-06-02T02:22:35.674Z,1013.55
2018-06-02T02:23:44.836Z,1013.59
2018-06-02T02:24:54.771Z,1013.53
2018-06-02T02:26:04.458Z,1013.54
2018-06-02T02:27:13.881Z,1013.52
2018-06-02T02:28:23.300Z,1013.53
2018-06-02T02:29:32.190Z,1013.53
2018-06-02T02:30:41.858Z,1013.54
2018-06-02T02:31:51.555Z,1013.56
2018-06-02T02:33:00.980Z,1013.6
2018-06-02T02:34:10.219Z,1013.63
2018-06-02T02:35:19.671Z,1013.67
2018-06-02T02:36:29.362Z,1013.65
2018-06-02T02:37:39.036Z,1013.63
2018-06-02T02:38:48.974Z,1013.64
2018-06-02T02:39:58.682Z,1013.63
2018-06-02T02:41:08.117Z,1013.64
2018-06-02T02:42:17.564Z,1013.63
2018-06-02T02:43:27.254Z,1013.68
2018-06-02T02:44:37.196Z,1013.66
2018-06-02T02:45:47.131Z,1013.67
2018-06-02T02:46:56.543Z,1013.73
2018-06-02T02:48:05.956Z,1013.72
2018-06-02T02:49:15.400Z,1013.72
2018-06-02T02:50:25.136Z,1013.71
2018-06-02T02:51:34.819Z,1013.66
2018-06-02T02:52:44.805Z,1013.68
2018-06-02T02:53:54.235Z,1013.7
2018-06-02T02:55:03.943Z,1013.73
2018-06-02T02:56:13.437Z,1013.77
2018-06-02T02:57:22.862Z,1013.75
2018-06-02T02:58:32.555Z,1013.77
2018-06-02T02:59:42.254Z,1013.76
2018-06-02T03:00:52.230Z,1013.82
2018-06-02T03:02:01.683Z,1013.79
2018-06-02T03:03:11.131Z,1013.78
2018-06-02T03:04:20.277Z,1013.8
2018-06-02T03:05:29.456Z,1013.79
2018-06-02T03:06:39.445Z,1013.81
2018-06-02T03:07:49.403Z,1013.79
2018-06-02T03:08:59.106Z,1013.74
2018-06-02T03:10:09.050Z,1013.8
2018-06-02T03:11:18.476Z,1013.81
2018-06-02T03:12:28.151Z,1013.81
2018-06-02T03:13:37.334Z,1013.8
2018-06-02T03:14:47.028Z,1013.77
2018-06-02T03:15:56.720Z,1013.79
2018-06-02T03:17:05.878Z,1013.79
2018-06-02T03:18:15.027Z,1013.77
2018-06-02T03:19:24.205Z,1013.79
2018-06-02T03:20:33.393Z,1013.8
2018-06-02T03:21:42.812Z,1013.8
2018-06-02T03:22:52.227Z,1013.83
2018-06-02T03:24:01.689Z,1013.82
2018-06-02T03:25:11.364Z,1013.86
2018-06-02T03:26:20.771Z,1013.83
2018-06-02T03:27:30.190Z,1013.83
2018-06-02T03:28:39.598Z,1013.81
2018-06-02T03:29:49.025Z,1013.8
2018-06-02T03:30:58.453Z,1013.77
2018-06-02T03:32:08.138Z,1013.74
2018-06-02T03:33:17.853Z,1013.79
2018-06-02T03:34:26.737Z,1013.77
2018-06-02T03:35:36.418Z,1013.78
2018-06-02T03:36:45.821Z,1013.74
2018-06-02T03:37:54.967Z,1013.78
2018-06-02T03:39:04.106Z,1013.78
2018-06-02T03:40:13.543Z,1013.78
2018-06-02T03:41:22.694Z,1013.81
2018-06-02T03:42:32.371Z,1013.77
2018-06-02T03:43:41.783Z,1013.79
2018-06-02T03:44:51.459Z,1013.77
2018-06-02T03:46:00.626Z,1013.79
2018-06-02T03:47:10.063Z,1013.8
2018-06-02T03:48:19.489Z,1013.78
2018-06-02T03:49:28.912Z,1013.76
2018-06-02T03:50:38.319Z,1013.76
2018-06-02T03:51:47.217Z,1013.75
2018-06-02T03:52:56.390Z,1013.76
2018-06-02T03:54:06.059Z,1013.75
2018-06-02T03:55:15.466Z,1013.79
2018-06-02T03:56:24.886Z,1013.8
2018-06-02T03:57:34.046Z,1013.8
2018-06-02T03:58:42.949Z,1013.81
2018-06-02T03:59:52.370Z,1013.84
2018-06-02T04:01:01.006Z,1013.82
2018-06-02T04:02:10.430Z,1013.87
2018-06-02T04:03:19.844Z,1013.83
2018-06-02T04:04:29.536Z,1013.86
2018-06-02T04:05:39.205Z,1013.88
2018-06-02T04:06:48.359Z,1013.88
2018-06-02T04:07:57.273Z,1013.83
2018-06-02T04:09:06.700Z,1013.85
2018-06-02T04:10:15.875Z,1013.89
2018-06-02T04:11:24.768Z,1013.86
2018-06-02T04:12:34.165Z,1013.88
2018-06-02T04:13:43.569Z,1013.9
2018-06-02T04:14:52.737Z,1013.89
2018-06-02T04:16:02.413Z,1013.9
2018-06-02T04:17:12.323Z,1013.96
2018-06-02T04:18:21.991Z,1013.9
2018-06-02T04:19:31.417Z,1013.9
2018-06-02T04:20:41.092Z,1013.9
2018-06-02T04:21:50.781Z,1013.9
2018-06-02T04:23:00.212Z,1013.95
2018-06-02T04:24:09.892Z,1013.93
2018-06-02T04:25:19.568Z,1013.95
2018-06-02T04:26:28.991Z,1013.97
2018-06-02T04:27:38.917Z,1013.96
2018-06-02T04:28:49.131Z,1013.97
2018-06-02T04:29:58.544Z,1013.96
2018-06-02T04:31:07.446Z,1013.95
2018-06-02T04:32:16.355Z,1014
2018-06-02T04:33:25.521Z,1014.01
2018-06-02T04:34:35.202Z,1014.04
2018-06-02T04:35:44.602Z,1014.01
2018-06-02T04:36:54.292Z,1014.05
2018-06-02T04:38:03.982Z,1014.04
2018-06-02T04:39:13.405Z,1014.06
2018-06-02T04:40:22.830Z,1014.07
2018-06-02T04:41:32.828Z,1014.01
2018-06-02T04:42:42.580Z,1014.04
2018-06-02T04:43:52.269Z,1014.04
2018-06-02T04:45:01.700Z,1014.01
2018-06-02T04:46:11.116Z,1014.04
2018-06-02T04:47:20.546Z,1014.05
2018-06-02T04:48:29.718Z,1014.06
2018-06-02T04:49:39.396Z,1014.1
2018-06-02T04:50:49.103Z,1014.09
2018-06-02T04:51:59.050Z,1014.12
2018-06-02T04:53:07.950Z,1014.09
2018-06-02T04:54:17.895Z,1014.08
2018-06-02T04:55:26.799Z,1014.12
2018-06-02T04:56:35.957Z,1014.15
2018-06-02T04:57:45.376Z,1014.15
2018-06-02T04:58:54.032Z,1014.15
2018-06-02T05:00:03.725Z,1014.17
2018-06-02T05:01:12.892Z,1014.12
2018-06-02T05:02:22.059Z,1014.12
2018-06-02T05:03:31.222Z,1014.15
2018-06-02T05:04:41.183Z,1014.11
2018-06-02T05:05:50.332Z,1014.12
2018-06-02T05:07:00.001Z,1014.11
2018-06-02T05:08:09.420Z,1014.15
2018-06-02T05:09:18.831Z,1014.15
2018-06-02T05:10:28.272Z,1014.13
2018-06-02T05:11:37.686Z,1014.15
2018-06-02T05:12:46.862Z,1014.18
2018-06-02T05:13:55.784Z,1014.15
2018-06-02T05:15:05.722Z,1014.18
2018-06-02T05:16:15.025Z,1014.18
2018-06-02T05:17:24.432Z,1014.18
2018-06-02T05:18:34.097Z,1014.21
2018-06-02T05:19:43.512Z,1014.18
2018-06-02T05:20:52.942Z,1014.23
2018-06-02T05:22:02.116Z,1014.24
2018-06-02T05:23:11.005Z,1014.22
2018-06-02T05:24:20.162Z,1014.29
2018-06-02T05:25:29.322Z,1014.29
2018-06-02T05:26:39.260Z,1014.33
2018-06-02T05:27:48.939Z,1014.29
2018-06-02T05:28:58.107Z,1014.3
2018-06-02T05:30:07.267Z,1014.34
2018-06-02T05:31:16.433Z,1014.31
2018-06-02T05:32:25.836Z,1014.33
2018-06-02T05:33:35.281Z,1014.33
2018-06-02T05:34:44.441Z,1014.33
2018-06-02T05:35:53.596Z,1014.29
2018-06-02T05:37:02.751Z,1014.29
2018-06-02T05:38:12.225Z,1014.29
2018-06-02T05:39:21.643Z,1014.25
2018-06-02T05:40:30.594Z,1014.25
2018-06-02T05:41:40.100Z,1014.24
2018-06-02T05:42:49.006Z,1014.24
2018-06-02T05:43:58.462Z,1014.21
2018-06-02T05:45:07.355Z,1014.26
2018-06-02T05:46:16.510Z,1014.26
2018-06-02T05:47:26.442Z,1014.29
2018-06-02T05:48:36.380Z,1014.28
2018-06-02T05:49:45.818Z,1014.27
2018-06-02T05:50:55.255Z,1014.27
2018-06-02T05:52:04.423Z,1014.29
2018-06-02T05:53:14.374Z,1014.3
2018-06-02T05:54:24.294Z,1014.28
2018-06-02T05:55:33.821Z,1014.28
2018-06-02T05:56:43.295Z,1014.32
2018-06-02T05:57:52.472Z,1014.35
2018-06-02T05:59:01.883Z,1014.36
2018-06-02T06:00:11.560Z,1014.37
2018-06-02T06:01:21.256Z,1014.36
2018-06-02T06:02:30.674Z,1014.38
2018-06-02T06:03:39.310Z,1014.39
2018-06-02T06:04:49.045Z,1014.38
2018-06-02T06:05:58.458Z,1014.39
2018-06-02T06:07:08.200Z,1014.39
2018-06-02T06:08:17.612Z,1014.38
2018-06-02T06:09:27.554Z,1014.38
2018-06-02T06:10:36.968Z,1014.4
2018-06-02T06:11:46.138Z,1014.38
2018-06-02T06:12:56.077Z,1014.42
2018-06-02T06:14:05.497Z,1014.42
2018-06-02T06:15:14.919Z,1014.42
2018-06-02T06:16:24.339Z,1014.41
2018-06-02T06:17:34.000Z,1014.46
2018-06-02T06:18:43.158Z,1014.43
2018-06-02T06:19:52.850Z,1014.42
2018-06-02T06:21:02.012Z,1014.42
2018-06-02T06:22:11.507Z,1014.46
2018-06-02T06:23:20.919Z,1014.44
2018-06-02T06:24:30.159Z,1014.43
2018-06-02T06:25:39.916Z,1014.42
2018-06-02T06:26:49.905Z,1014.41
2018-06-02T06:27:59.482Z,1014.4
2018-06-02T06:29:08.900Z,1014.38
2018-06-02T06:30:18.546Z,1014.37
2018-06-02T06:31:28.489Z,1014.35
2018-06-02T06:32:37.929Z,1014.34
2018-06-02T06:33:47.095Z,1014.34
2018-06-02T06:34:56.253Z,1014.35
2018-06-02T06:36:05.424Z,1014.34
2018-06-02T06:37:14.642Z,1014.34
2018-06-02T06:38:24.069Z,1014.3
2018-06-02T06:39:33.250Z,1014.27
2018-06-02T06:40:43.183Z,1014.29
2018-06-02T06:41:52.343Z,1014.26
2018-06-02T06:43:01.761Z,1014.27
2018-06-02T06:44:11.178Z,1014.26
2018-06-02T06:45:19.807Z,1014.23
2018-06-02T06:46:29.049Z,1014.22
2018-06-02T06:47:39.189Z,1014.22
2018-06-02T06:48:48.624Z,1014.19
2018-06-02T06:49:57.537Z,1014.18
2018-06-02T06:51:07.265Z,1014.16
2018-06-02T06:52:16.697Z,1014.2
2018-06-02T06:53:25.863Z,1014.19
2018-06-02T06:54:34.785Z,1014.17
2018-06-02T06:55:43.964Z,1014.17
2018-06-02T06:56:52.954Z,1014.21
2018-06-02T06:58:02.909Z,1014.23
2018-06-02T06:59:12.579Z,1014.23
2018-06-02T07:00:22.275Z,1014.22
2018-06-02T07:01:31.437Z,1014.23
2018-06-02T07:02:40.890Z,1014.25
2018-06-02T07:03:50.330Z,1014.22
2018-06-02T07:04:59.754Z,1014.29
2018-06-02T07:06:09.440Z,1014.29
2018-06-02T07:07:18.841Z,1014.28
2018-06-02T07:08:28.021Z,1014.27
2018-06-02T07:09:37.225Z,1014.28
2018-06-02T07:10:46.640Z,1014.39
2018-06-02T07:11:55.844Z,1014.36
2018-06-02T07:13:05.335Z,1014.36
2018-06-02T07:14:14.771Z,1014.41
2018-06-02T07:15:24.189Z,1014.41
2018-06-02T07:16:33.611Z,1014.41
2018-06-02T07:17:43.050Z,1014.41
2018-06-02T07:18:52.637Z,1014.42
2018-06-02T07:20:01.553Z,1014.39
2018-06-02T07:21:10.717Z,1014.42
2018-06-02T07:22:19.630Z,1014.39
2018-06-02T07:23:29.039Z,1014.38
2018-06-02T07:24:38.440Z,1014.38
2018-06-02T07:25:47.637Z,1014.43
2018-06-02T07:26:57.600Z,1014.41
2018-06-02T07:28:06.759Z,1014.4
2018-06-02T07:29:15.920Z,1014.39
2018-06-02T07:30:25.358Z,1014.38
2018-06-02T07:31:34.806Z,1014.42
2018-06-02T07:32:43.961Z,1014.38
2018-06-02T07:33:53.159Z,1014.38
2018-06-02T07:35:02.067Z,1014.44
2018-06-02T07:36:11.319Z,1014.43
2018-06-02T07:37:20.663Z,1014.42
2018-06-02T07:38:29.853Z,1014.44
2018-06-02T07:39:39.107Z,1014.45
2018-06-02T07:40:48.545Z,1014.47
2018-06-02T07:41:58.254Z,1014.46
2018-06-02T07:43:07.159Z,1014.44
2018-06-02T07:44:16.872Z,1014.44
2018-06-02T07:45:26.550Z,1014.42
2018-06-02T07:46:36.262Z,1014.43
2018-06-02T07:47:45.834Z,1014.39
2018-06-02T07:48:55.002Z,1014.43
2018-06-02T07:50:04.751Z,1014.39
2018-06-02T07:51:14.634Z,1014.42
2018-06-02T07:52:24.601Z,1014.42
2018-06-02T07:53:34.011Z,1014.4
2018-06-02T07:54:43.949Z,1014.44
2018-06-02T07:55:53.623Z,1014.37
2018-06-02T07:57:02.835Z,1014.41
2018-06-02T07:58:12.514Z,1014.38
2018-06-02T07:59:21.955Z,1014.38
2018-06-02T08:00:30.917Z,1014.41
2018-06-02T08:01:40.592Z,1014.42
2018-06-02T08:02:49.478Z,1014.42
2018-06-02T08:03:58.630Z,1014.41
2018-06-02T08:05:07.812Z,1014.44
2018-06-02T08:06:17.500Z,1014.45
2018-06-02T08:07:26.661Z,1014.46
2018-06-02T08:08:35.823Z,1014.44
2018-06-02T08:09:45.683Z,1014.39
2018-06-02T08:10:54.854Z,1014.43
2018-06-02T08:12:04.294Z,1014.43
2018-06-02T08:13:14.248Z,1014.42
2018-06-02T08:14:23.675Z,1014.41
2018-06-02T08:15:33.147Z,1014.41
2018-06-02T08:16:42.850Z,1014.4
2018-06-02T08:17:52.270Z,1014.41
2018-06-02T08:19:01.690Z,1014.42
2018-06-02T08:20:11.378Z,1014.4
2018-06-02T08:21:20.551Z,1014.37
2018-06-02T08:22:30.245Z,1014.39
2018-06-02T08:23:39.910Z,1014.38
2018-06-02T08:24:49.060Z,1014.41
2018-06-02T08:25:58.487Z,1014.38
2018-06-02T08:27:07.661Z,1014.39
2018-06-02T08:28:17.094Z,1014.41
2018-06-02T08:29:26.575Z,1014.37
2018-06-02T08:30:36.421Z,1014.35
2018-06-02T08:31:45.497Z,1014.36
2018-06-02T08:32:54.676Z,1014.37
2018-06-02T08:34:03.846Z,1014.38
2018-06-02T08:35:12.503Z,1014.39
2018-06-02T08:36:22.251Z,1014.39
2018-06-02T08:37:31.945Z,1014.35
2018-06-02T08:38:41.623Z,1014.38
2018-06-02T08:39:51.809Z,1014.36
2018-06-02T08:41:01.831Z,1014.35
2018-06-02T08:42:11.051Z,1014.36
2018-06-02T08:43:20.988Z,1014.32
2018-06-02T08:44:30.681Z,1014.31
2018-06-02T08:45:39.840Z,1014.32
2018-06-02T08:46:49.570Z,1014.3
2018-06-02T08:47:59.057Z,1014.33
2018-06-02T08:49:08.498Z,1014.36
2018-06-02T08:50:17.980Z,1014.35
2018-06-02T08:51:27.051Z,1014.34
2018-06-02T08:52:37.050Z,1014.33
2018-06-02T08:53:46.757Z,1014.32
2018-06-02T08:54:56.216Z,1014.32
2018-06-02T08:56:05.453Z,1014.33
2018-06-02T08:57:15.163Z,1014.32
2018-06-02T08:58:24.862Z,1014.32
2018-06-02T08:59:34.045Z,1014.35
2018-06-02T09:00:43.211Z,1014.38
2018-06-02T09:01:52.386Z,1014.36
2018-06-02T09:03:01.810Z,1014.42
2018-06-02T09:04:11.554Z,1014.41
2018-06-02T09:05:20.781Z,1014.39
2018-06-02T09:06:29.808Z,1014.42
2018-06-02T09:07:39.928Z,1014.44
2018-06-02T09:08:49.140Z,1014.45
2018-06-02T09:09:58.382Z,1014.43
2018-06-02T09:11:07.552Z,1014.45
2018-06-02T09:12:16.962Z,1014.44
2018-06-02T09:13:26.404Z,1014.43
2018-06-02T09:14:36.145Z,1014.46
2018-06-02T09:15:45.612Z,1014.46
2018-06-02T09:16:54.795Z,1014.45
2018-06-02T09:18:03.704Z,1014.51
2018-06-02T09:19:13.171Z,1014.5
2018-06-02T09:20:22.634Z,1014.5
2018-06-02T09:21:32.319Z,1014.48
2018-06-02T09:22:41.752Z,1014.53
2018-06-02T09:23:50.920Z,1014.54
2018-06-02T09:25:00.603Z,1014.54
2018-06-02T09:26:09.502Z,1014.53
2018-06-02T09:27:18.654Z,1014.54
2018-06-02T09:28:27.563Z,1014.51
2018-06-02T09:29:36.973Z,1014.5
2018-06-02T09:30:46.991Z,1014.51
2018-06-02T09:31:56.418Z,1014.5
2018-06-02T09:33:06.108Z,1014.54
2018-06-02T09:34:15.794Z,1014.58
2018-06-02T09:35:25.400Z,1014.55
2018-06-02T09:36:34.812Z,1014.56
2018-06-02T09:37:43.978Z,1014.56
2018-06-02T09:38:53.397Z,1014.6
2018-06-02T09:40:02.815Z,1014.56
2018-06-02T09:41:11.968Z,1014.59
2018-06-02T09:42:21.640Z,1014.66
2018-06-02T09:43:31.340Z,1014.62
2018-06-02T09:44:41.071Z,1014.65
2018-06-02T09:45:50.915Z,1014.58
2018-06-02T09:47:00.155Z,1014.59
2018-06-02T09:48:09.362Z,1014.63
2018-06-02T09:49:18.830Z,1014.59
2018-06-02T09:50:28.276Z,1014.58
2018-06-02T09:51:37.694Z,1014.61
2018-06-02T09:52:46.633Z,1014.6
2018-06-02T09:53:56.319Z,1014.59
2018-06-02T09:55:06.259Z,1014.59
2018-06-02T09:56:15.948Z,1014.55
2018-06-02T09:57:25.365Z,1014.54
2018-06-02T09:58:34.813Z,1014.57
2018-06-02T09:59:44.003Z,1014.52
2018-06-02T10:00:52.929Z,1014.54
2018-06-02T10:02:02.633Z,1014.5
2018-06-02T10:03:12.094Z,1014.5
2018-06-02T10:04:21.563Z,1014.47
2018-06-02T10:05:31.263Z,1014.48
2018-06-02T10:06:40.476Z,1014.47
2018-06-02T10:07:49.908Z,1014.5
2018-06-02T10:08:59.391Z,1014.52
2018-06-02T10:10:08.817Z,1014.5
2018-06-02T10:11:18.307Z,1014.54
2018-06-02T10:12:28.297Z,1014.53
2018-06-02T10:13:38.012Z,1014.54
2018-06-02T10:14:47.461Z,1014.55
2018-06-02T10:15:57.141Z,1014.54
2018-06-02T10:17:06.816Z,1014.53
2018-06-02T10:18:16.244Z,1014.6
2018-06-02T10:19:25.428Z,1014.6
2018-06-02T10:20:34.643Z,1014.58
2018-06-02T10:21:44.603Z,1014.64
2018-06-02T10:22:53.798Z,1014.6
2018-06-02T10:24:03.393Z,1014.62
2018-06-02T10:25:13.182Z,1014.59
2018-06-02T10:26:22.628Z,1014.58
2018-06-02T10:27:31.781Z,1014.58
2018-06-02T10:28:41.210Z,1014.55
2018-06-02T10:29:50.694Z,1014.59
2018-06-02T10:31:00.139Z,1014.52
2018-06-02T10:32:09.337Z,1014.52
2018-06-02T10:33:18.490Z,1014.47
2018-06-02T10:34:27.984Z,1014.55
2018-06-02T10:35:37.750Z,1014.49
2018-06-02T10:36:47.556Z,1014.49
2018-06-02T10:37:56.745Z,1014.49
2018-06-02T10:39:05.967Z,1014.47
2018-06-02T10:40:15.415Z,1014.46
2018-06-02T10:41:24.621Z,1014.43
2018-06-02T10:42:34.315Z,1014.42
2018-06-02T10:43:43.494Z,1014.4
2018-06-02T10:44:52.976Z,1014.4
2018-06-02T10:46:02.411Z,1014.43
2018-06-02T10:47:12.086Z,1014.39
2018-06-02T10:48:21.512Z,1014.36
2018-06-02T10:49:30.954Z,1014.37
2018-06-02T10:50:40.122Z,1014.34
2018-06-02T10:51:49.813Z,1014.35
2018-06-02T10:52:59.232Z,1014.35
2018-06-02T10:54:08.668Z,1014.38
2018-06-02T10:55:17.560Z,1014.35
2018-06-02T10:56:26.976Z,1014.4
2018-06-02T10:57:36.663Z,1014.41
2018-06-02T10:58:46.086Z,1014.39
2018-06-02T10:59:56.040Z,1014.43
2018-06-02T11:01:05.467Z,1014.44
2018-06-02T11:02:14.885Z,1014.46
2018-06-02T11:03:24.315Z,1014.45
2018-06-02T11:04:33.509Z,1014.51
2018-06-02T11:05:42.977Z,1014.45
2018-06-02T11:06:52.413Z,1014.47
2018-06-02T11:08:02.381Z,1014.48
2018-06-02T11:09:12.067Z,1014.45
2018-06-02T11:10:21.235Z,1014.41
2018-06-02T11:11:30.929Z,1014.37
2018-06-02T11:12:40.348Z,1014.4
2018-06-02T11:13:50.062Z,1014.43
2018-06-02T11:14:59.503Z,1014.45
2018-06-02T11:16:09.176Z,1014.4
2018-06-02T11:17:18.851Z,1014.44
2018-06-02T11:18:28.561Z,1014.44
2018-06-02T11:19:37.809Z,1014.45
2018-06-02T11:20:47.859Z,1014.42
2018-06-02T11:21:57.533Z,1014.44
2018-06-02T11:23:06.822Z,1014.47
2018-06-02T11:24:16.787Z,1014.39
2018-06-02T11:25:26.229Z,1014.38
2018-06-02T11:26:35.943Z,1014.4
2018-06-02T11:27:45.140Z,1014.38
2018-06-02T11:28:54.134Z,1014.38
2018-06-02T11:30:03.575Z,1014.39
2018-06-02T11:31:13.028Z,1014.3
2018-06-02T11:32:22.516Z,1014.36
2018-06-02T11:33:31.689Z,1014.32
2018-06-02T11:34:40.875Z,1014.3
2018-06-02T11:35:50.344Z,1014.32
2018-06-02T11:36:59.881Z,1014.34
2018-06-02T11:38:09.104Z,1014.36
2018-06-02T11:39:18.294Z,1014.36
2018-06-02T11:40:27.516Z,1014.32
2018-06-02T11:41:36.716Z,1014.38
2018-06-02T11:42:46.393Z,1014.4
2018-06-02T11:43:55.829Z,1014.44
2018-06-02T11:45:05.901Z,1014.41
2018-06-02T11:46:15.368Z,1014.39
2018-06-02T11:47:24.533Z,1014.35
2018-06-02T11:48:34.476Z,1014.36
2018-06-02T11:49:43.962Z,1014.43
2018-06-02T11:50:53.146Z,1014.39
2018-06-02T11:52:02.341Z,1014.39
2018-06-02T11:53:11.789Z,1014.37
2018-06-02T11:54:21.230Z,1014.33
2018-06-02T11:55:30.487Z,1014.36
2018-06-02T11:56:40.203Z,1014.37
2018-06-02T11:57:49.683Z,1014.34
2018-06-02T11:58:58.645Z,1014.28
2018-06-02T12:00:08.066Z,1014.29
2018-06-02T12:01:17.007Z,1014.26
2018-06-02T12:02:26.474Z,1014.2
2018-06-02T12:03:36.614Z,1014.23
2018-06-02T12:04:46.333Z,1014.24
2018-06-02T12:05:56.032Z,1014.23
2018-06-02T12:07:05.465Z,1014.22
2018-06-02T12:08:14.707Z,1014.19
2018-06-02T12:09:23.929Z,1014.18
2018-06-02T12:10:32.837Z,1014.18
2018-06-02T12:11:42.581Z,1014.12
2018-06-02T12:12:52.039Z,1014.17
2018-06-02T12:14:01.007Z,1014.17
2018-06-02T12:15:10.701Z,1014.19
2018-06-02T12:16:20.115Z,1014.17
2018-06-02T12:17:30.064Z,1014.18
2018-06-02T12:18:39.773Z,1014.23
2018-06-02T12:19:49.507Z,1014.25
2018-06-02T12:20:59.239Z,1014.23
2018-06-02T12:22:08.683Z,1014.18
2018-06-02T12:23:17.890Z,1014.2
2018-06-02T12:24:26.817Z,1014.17
2018-06-02T12:25:36.278Z,1014.25
2018-06-02T12:26:45.986Z,1014.2
2018-06-02T12:27:55.417Z,1014.26
2018-06-02T12:29:04.864Z,1014.27
2018-06-02T12:30:13.811Z,1014.26
2018-06-02T12:31:22.735Z,1014.24
2018-06-02T12:32:32.440Z,1014.18
2018-06-02T12:33:41.917Z,1014.2
2018-06-02T12:34:51.876Z,1014.17
2018-06-02T12:36:01.064Z,1014.14
2018-06-02T12:37:10.529Z,1014.16
2018-06-02T12:38:19.756Z,1014.15
2018-06-02T12:39:29.168Z,1014.13
2018-06-02T12:40:38.328Z,1014.15
2018-06-02T12:41:47.490Z,1014.12
2018-06-02T12:42:57.224Z,1014.13
2018-06-02T12:44:06.664Z,1014.11
2018-06-02T12:45:16.121Z,1014.09
2018-06-02T12:46:25.804Z,1014.07
2018-06-02T12:47:35.291Z,1014.13
2018-06-02T12:48:44.544Z,1014.14
2018-06-02T12:49:53.733Z,1014.12
2018-06-02T12:51:02.670Z,1014.18
2018-06-02T12:52:11.863Z,1014.18
2018-06-02T12:53:21.317Z,1014.21
2018-06-02T12:54:30.624Z,1014.26
2018-06-02T12:55:40.593Z,1014.28
2018-06-02T12:56:50.295Z,1014.25
2018-06-02T12:57:59.977Z,1014.22
2018-06-02T12:59:09.658Z,1014.21
2018-06-02T13:00:19.082Z,1014.16
2018-06-02T13:01:28.776Z,1014.14
2018-06-02T13:02:38.215Z,1014.14
2018-06-02T13:03:47.650Z,1014.15
2018-06-02T13:04:56.816Z,1014.18
2018-06-02T13:06:06.237Z,1014.17
2018-06-02T13:07:15.935Z,1014.17
2018-06-02T13:08:25.340Z,1014.27
2018-06-02T13:09:35.035Z,1014.23
2018-06-02T13:10:44.978Z,1014.24
2018-06-02T13:11:54.717Z,1014.23
2018-06-02T13:13:04.148Z,1014.27
2018-06-02T13:14:13.595Z,1014.23
2018-06-02T13:15:23.537Z,1014.25
2018-06-02T13:16:32.958Z,1014.27
2018-06-02T13:17:42.139Z,1014.24
2018-06-02T13:18:51.828Z,1014.26
2018-06-02T13:20:00.738Z,1014.27
2018-06-02T13:21:10.957Z,1014.24
2018-06-02T13:22:21.068Z,1014.26
2018-06-02T13:23:30.220Z,1014.25
2018-06-02T13:24:39.426Z,1014.3
2018-06-02T13:25:49.365Z,1014.28
2018-06-02T13:26:58.792Z,1014.27
2018-06-02T13:28:07.946Z,1014.27
2018-06-02T13:29:16.871Z,1014.23
2018-06-02T13:30:26.552Z,1014.17
2018-06-02T13:31:35.743Z,1014.22
2018-06-02T13:32:45.440Z,1014.21
2018-06-02T13:33:54.334Z,1014.16
2018-06-02T13:35:04.284Z,1014.17
2018-06-02T13:36:13.980Z,1014.19
2018-06-02T13:37:23.168Z,1014.19
2018-06-02T13:38:32.584Z,1014.19
2018-06-02T13:39:41.755Z,1014.2
2018-06-02T13:40:51.230Z,1014.16
2018-06-02T13:42:00.420Z,1014.17
2018-06-02T13:43:09.832Z,1014.17
2018-06-02T13:44:19.569Z,1014.18
2018-06-02T13:45:29.000Z,1014.16
2018-06-02T13:46:38.681Z,1014.16
2018-06-02T13:47:48.108Z,1014.13
2018-06-02T13:48:57.302Z,1014.15
2018-06-02T13:50:06.729Z,1014.15
2018-06-02T13:51:15.879Z,1014.15
2018-06-02T13:52:25.523Z,1014.08
2018-06-02T13:53:34.423Z,1014.12
2018-06-02T13:54:43.606Z,1014.05
2018-06-02T13:55:53.023Z,1014.05
2018-06-02T13:57:02.263Z,1014.04
2018-06-02T13:58:11.418Z,1013.99
2018-06-02T13:59:20.329Z,1013.97
2018-06-02T14:00:29.493Z,1013.96
2018-06-02T14:01:39.154Z,1014.01